Terminal Aerodrome Forecast
Issued by NWS Brownsville, TX

Home | Current Version | Previous Version | Text Only | Print | Product List | Glossary On
Versions: 1 2 3 4 5 6 7 8 9 10 11 12 13 14 15 16 17
579
FTUS44 KBRO 300256 AAB
TAFMFE
TAF AMD
KMFE 300256Z 3003/3024 08006KT P6SM SKC
     FM300600 03007KT P6SM SCT150
     FM301900 05009KT P6SM BKN050
     FM302100 05010KT P6SM SCT050=

USA.gov is the U.S. government's official web portal to all federal, state and local government web resources and services.